Time;durP1;ratioP1;P1;durP2;ratioP2;P2;SDS_P1;SDS_P2;PMS_P1;PMS_P2;Temp;Humidity;BMP_temperature;BMP_pressure;BME280_temperature;BME280_humidity;BME280_pressure;Samples;Min_cycle;Max_cycle;Signal;HPM_P1;HPM_P2
2023/04/21 00:01:40;;;;;;;0.60;0.60;;;;;;;8.58;84.81;99213.72;4486803;31;35844;-77
2023/04/21 00:04:12;;;;;;;0.50;0.50;;;;;;;8.92;82.94;99211.78;4500784;31;34464;-78
2023/04/21 00:06:40;;;;;;;0.50;0.50;;;;;;;8.44;85.25;99208.59;4487143;31;33319;-78
2023/04/21 00:09:10;;;;;;;0.40;0.40;;;;;;;8.50;84.86;99211.16;4500764;31;34027;-78
2023/04/21 00:11:38;;;;;;;1.40;1.30;;;;;;;8.62;83.42;99204.19;4486717;31;35008;-77
2023/04/21 00:14:06;;;;;;;0.40;0.40;;;;;;;8.24;85.58;99205.16;4500387;31;34604;-78
2023/04/21 00:16:34;;;;;;;0.40;0.40;;;;;;;7.92;87.32;99211.31;4500791;31;33478;-78
2023/04/21 00:19:05;;;;;;;0.40;0.40;;;;;;;8.53;84.31;99207.69;4500665;31;34710;-78
2023/04/21 00:21:35;;;;;;;0.98;0.98;;;;;;;9.04;80.40;99205.66;4500533;31;35073;-78
2023/04/21 00:24:03;;;;;;;0.50;0.50;;;;;;;8.77;80.06;99201.53;4486495;31;34468;-79
2023/04/21 00:26:31;;;;;;;0.50;0.50;;;;;;;8.07;85.62;99202.66;4500357;31;34190;-78
2023/04/21 00:28:59;;;;;;;1.00;1.00;;;;;;;8.33;83.71;99197.38;4500505;31;33874;-77
2023/04/21 00:31:30;;;;;;;0.52;0.52;;;;;;;8.11;84.39;99205.22;4486395;31;35016;-78
2023/04/21 00:33:58;;;;;;;0.60;0.60;;;;;;;7.77;86.49;99194.94;4486273;31;35151;-77
2023/04/21 00:36:27;;;;;;;0.50;0.50;;;;;;;8.23;84.08;99198.28;4487963;31;34048;-78
2023/04/21 00:38:55;;;;;;;0.55;0.55;;;;;;;8.27;82.18;99199.97;4502528;31;34048;-78
2023/04/21 00:41:23;;;;;;;0.77;0.68;;;;;;;8.01;84.56;99198.31;4488510;31;35010;-78
2023/04/21 00:44:05;;;;;;;1.08;1.08;;;;;;;8.20;83.41;99199.13;4502372;31;34374;-78
2023/04/21 00:46:34;;;;;;;0.90;0.90;;;;;;;8.25;83.44;99196.53;4502673;31;33288;-78
2023/04/21 00:49:04;;;;;;;0.52;0.52;;;;;;;8.17;81.77;99193.97;4488628;31;33911;-78
2023/04/21 00:51:33;;;;;;;1.00;0.75;;;;;;;8.09;81.22;99190.53;4488413;31;34999;-78
2023/04/21 00:54:04;;;;;;;1.17;1.12;;;;;;;8.24;81.13;99189.59;4502784;31;34439;-78
2023/04/21 00:56:34;;;;;;;0.70;0.70;;;;;;;7.74;84.16;99189.75;4480743;32;33436;-78
2023/04/21 00:59:03;;;;;;;0.50;0.50;;;;;;;8.03;82.11;99194.00;4472710;32;34660;-78
2023/04/21 01:01:33;;;;;;;1.48;1.40;;;;;;;7.57;83.97;99196.66;4485618;32;35013;-78
2023/04/21 01:04:02;;;;;;;0.77;0.77;;;;;;;7.59;84.97;99190.63;4486988;32;34514;-78
2023/04/21 01:06:32;;;;;;;0.50;0.50;;;;;;;7.67;83.91;99182.84;4472782;32;33530;-78
2023/04/21 01:09:06;;;;;;;0.80;0.80;;;;;;;7.72;83.48;99183.69;4486659;32;33927;-77
2023/04/21 01:11:36;;;;;;;0.50;0.50;;;;;;;7.67;84.35;99194.94;4473392;32;35051;-78
2023/04/21 01:14:06;;;;;;;0.50;0.50;;;;;;;7.51;83.77;99188.91;4486552;32;33773;-78
2023/04/21 01:16:36;;;;;;;0.85;0.80;;;;;;;7.22;85.75;99185.47;4486699;32;34208;-77
2023/04/21 01:19:05;;;;;;;1.52;1.42;;;;;;;7.13;85.76;99187.19;4486935;32;34043;-79
2023/04/21 01:21:39;;;;;;;0.68;0.68;;;;;;;7.42;84.29;99184.59;4486573;32;34948;-79
2023/04/21 01:24:07;;;;;;;0.70;0.70;;;;;;;7.20;85.21;99187.19;4472607;32;34403;-79
2023/04/21 01:26:36;;;;;;;0.73;0.73;;;;;;;7.32;84.76;99183.72;4486505;32;33593;-79
2023/04/21 01:29:04;;;;;;;1.00;1.00;;;;;;;7.59;83.29;99180.28;4486572;32;34666;-78
2023/04/21 01:31:32;;;;;;;0.65;0.65;;;;;;;8.13;79.95;99180.13;4486554;32;34972;-79
2023/04/21 01:34:04;;;;;;;3.80;1.85;;;;;;;7.68;80.53;99176.81;4486441;32;34390;-79
2023/04/21 01:36:33;;;;;;;1.00;1.00;;;;;;;7.82;80.92;99178.50;4486479;32;33839;-79
2023/04/21 01:39:01;;;;;;;0.90;0.90;;;;;;;8.01;77.94;99172.38;4469423;32;33953;-79
2023/04/21 01:41:29;;;;;;;2.30;1.67;;;;;;;8.10;77.44;99177.56;4470746;32;35037;-79
2023/04/21 01:43:57;;;;;;;0.40;0.40;;;;;;;8.30;76.97;99179.22;4471027;32;34557;-79
2023/04/21 01:46:25;;;;;;;0.50;0.50;;;;;;;8.35;76.11;99169.69;4470777;32;33413;-78
2023/04/21 01:48:53;;;;;;;4.35;3.05;;;;;;;8.22;77.92;99170.59;4470683;32;33926;-79
2023/04/21 01:51:22;;;;;;;0.90;0.90;;;;;;;8.31;77.11;99167.97;4470601;32;35123;-79
2023/04/21 01:53:50;;;;;;;1.27;1.17;;;;;;;8.02;79.03;99173.28;4469617;32;34435;-78
2023/04/21 01:56:18;;;;;;;0.85;0.85;;;;;;;7.90;77.24;99164.66;4470876;32;33442;-78
2023/04/21 01:58:46;;;;;;;0.62;0.62;;;;;;;7.24;82.21;99172.53;4470578;32;33792;-80
2023/04/21 02:01:14;;;;;;;0.57;0.57;;;;;;;7.75;79.83;99181.12;4470986;32;35040;-79
2023/04/21 02:03:43;;;;;;;0.77;0.77;;;;;;;7.09;82.79;99177.69;4470652;32;34503;-78
2023/04/21 02:06:12;;;;;;;0.57;0.57;;;;;;;7.46;82.13;99182.88;4469359;32;33400;-78
2023/04/21 02:08:41;;;;;;;0.55;0.55;;;;;;;7.23;81.77;99191.50;4469418;32;34791;-78
2023/04/21 02:11:09;;;;;;;0.65;0.65;;;;;;;7.38;80.91;99185.47;4469349;32;35133;-79
2023/04/21 02:13:39;;;;;;;0.65;0.65;;;;;;;7.46;81.08;99182.88;4470897;32;33604;-77
2023/04/21 02:16:08;;;;;;;3.12;2.17;;;;;;;7.28;82.15;99179.41;4470814;32;33438;-79
2023/04/21 02:18:43;;;;;;;0.88;0.85;;;;;;;6.89;83.04;99191.47;4469493;32;34980;-78
2023/04/21 02:21:11;;;;;;;0.70;0.70;;;;;;;6.94;82.83;99187.19;4470554;32;34205;-78
2023/04/21 02:23:40;;;;;;;0.77;0.77;;;;;;;7.70;78.03;99177.66;4470495;32;33783;-79
2023/04/21 02:26:08;;;;;;;1.02;1.02;;;;;;;7.37;81.11;99183.75;4470589;32;34309;-79
2023/04/21 02:28:36;;;;;;;0.50;0.50;;;;;;;7.22;81.08;99182.03;4470496;32;33789;-80
2023/04/21 02:31:04;;;;;;;3.33;2.47;;;;;;;6.98;82.06;99194.06;4470511;32;34922;-79
2023/04/21 02:33:33;;;;;;;0.50;0.50;;;;;;;6.76;83.42;99189.72;4470589;32;34853;-79
2023/04/21 02:36:03;;;;;;;0.62;0.62;;;;;;;6.74;83.98;99191.44;4469191;32;34114;-78
2023/04/21 02:38:31;;;;;;;1.33;1.23;;;;;;;6.14;88.26;99189.53;4474695;32;33993;-79
2023/04/21 02:40:59;;;;;;;0.98;0.75;;;;;;;6.70;86.06;99184.53;4486033;32;35005;-78
2023/04/21 02:43:27;;;;;;;0.60;0.60;;;;;;;6.79;84.07;99190.63;4472011;32;34399;-79
2023/04/21 02:45:55;;;;;;;0.65;0.65;;;;;;;7.01;83.28;99191.50;4486080;32;33423;-78
2023/04/21 02:48:24;;;;;;;2.03;1.87;;;;;;;7.03;83.05;99188.91;4472045;32;33692;-79
2023/04/21 02:50:52;;;;;;;0.60;0.60;;;;;;;6.43;86.52;99184.47;4486240;32;35940;-80
2023/04/21 02:53:20;;;;;;;0.60;0.60;;;;;;;6.02;89.78;99184.31;4485975;32;34410;-78
2023/04/21 02:55:50;;;;;;;0.55;0.55;;;;;;;5.95;91.08;99190.22;4472136;32;33504;-77
2023/04/21 02:58:18;;;;;;;1.67;1.58;;;;;;;6.35;88.29;99177.53;4485368;32;33763;-79
2023/04/21 03:00:46;;;;;;;0.52;0.52;;;;;;;6.67;85.24;99189.69;4485851;32;35046;-79
2023/04/21 03:03:15;;;;;;;2.15;1.05;;;;;;;6.26;86.80;99184.41;4485847;32;34577;-80
2023/04/21 03:05:44;;;;;;;6.70;1.73;;;;;;;6.46;85.52;99193.97;4471885;32;33365;-78
2023/04/21 03:08:12;;;;;;;0.82;0.82;;;;;;;6.15;85.82;99191.25;4485807;32;34018;-78
2023/04/21 03:10:40;;;;;;;0.90;0.90;;;;;;;6.31;85.38;99186.16;4471475;32;34318;-78
2023/04/21 03:13:09;;;;;;;0.60;0.60;;;;;;;6.28;86.70;99186.13;4485804;32;35215;-79
2023/04/21 03:15:37;;;;;;;0.50;0.50;;;;;;;6.45;85.22;99192.22;4485612;32;33510;-79
2023/04/21 03:18:05;;;;;;;0.70;0.70;;;;;;;6.35;86.63;99190.47;4485721;32;33566;-79
2023/04/21 03:20:33;;;;;;;0.55;0.55;;;;;;;6.50;85.29;99190.53;4485682;32;35884;-78
2023/04/21 03:23:02;;;;;;;1.75;1.25;;;;;;;6.83;83.97;99188.91;4485620;32;34541;-79
2023/04/21 03:25:30;;;;;;;0.60;0.60;;;;;;;7.27;79.27;99188.06;4485568;32;34007;-78
2023/04/21 03:27:58;;;;;;;0.80;0.80;;;;;;;6.50;83.53;99187.94;4471827;32;33845;-79
2023/04/21 03:30:26;;;;;;;2.30;2.05;;;;;;;6.71;83.11;99183.69;4471475;32;35919;-78
2023/04/21 03:32:55;;;;;;;1.25;1.20;;;;;;;7.23;79.45;99191.50;4485508;32;35194;-80
2023/04/21 03:35:23;;;;;;;0.50;0.50;;;;;;;6.90;81.92;99193.22;4485402;32;34161;-79
2023/04/21 03:37:51;;;;;;;0.77;0.77;;;;;;;6.67;82.73;99188.00;4485427;32;35010;-79
2023/04/21 03:40:20;;;;;;;0.60;0.60;;;;;;;6.66;83.65;99194.00;4485242;32;35955;-79
2023/04/21 03:42:48;;;;;;;6.03;3.70;;;;;;;6.67;83.82;99192.28;4485614;32;34650;-79
2023/04/21 03:45:21;;;;;;;0.52;0.52;;;;;;;7.00;82.37;99194.06;4485390;32;33493;-79
2023/04/21 03:47:54;;;;;;;0.62;0.62;;;;;;;6.99;82.37;99195.81;4485280;32;33915;-79
2023/04/21 03:50:22;;;;;;;0.60;0.60;;;;;;;7.12;79.58;99193.25;4485152;32;35757;-79
2023/04/21 03:52:51;;;;;;;0.82;0.82;;;;;;;7.39;78.84;99203.63;4485117;32;34574;-79
2023/04/21 03:55:19;;;;;;;0.60;0.60;;;;;;;7.30;79.84;99203.59;4485131;32;33442;-79
2023/04/21 03:57:47;;;;;;;0.57;0.57;;;;;;;7.59;78.57;99206.19;4484992;32;33841;-79
2023/04/21 04:00:15;;;;;;;0.88;0.85;;;;;;;7.54;78.92;99207.91;4485067;32;35062;-79
2023/04/21 04:02:45;;;;;;;0.80;0.80;;;;;;;7.37;78.36;99202.72;4471178;32;34539;-80
2023/04/21 04:05:13;;;;;;;0.50;0.50;;;;;;;7.50;77.02;99205.31;4484981;32;33365;-79
2023/04/21 04:07:41;;;;;;;5.78;4.22;;;;;;;7.42;78.70;99212.25;4485186;32;34714;-78
2023/04/21 04:10:10;;;;;;;1.30;0.90;;;;;;;7.59;78.00;99210.50;4470991;32;35749;-78
2023/04/21 04:12:38;;;;;;;0.70;0.70;;;;;;;7.55;77.84;99216.53;4487147;32;34426;-79
2023/04/21 04:15:07;;;;;;;1.55;1.52;;;;;;;7.52;80.78;99219.16;4487302;32;34150;-79
2023/04/21 04:17:35;;;;;;;0.50;0.50;;;;;;;7.89;78.67;99219.97;4487124;32;33968;-80
2023/04/21 04:20:06;;;;;;;0.70;0.70;;;;;;;7.31;81.40;99223.47;4486961;32;35141;-79
2023/04/21 04:22:35;;;;;;;0.70;0.70;;;;;;;7.66;80.27;99227.78;4460440;32;34436;-78
2023/04/21 04:25:04;;;;;;;0.60;0.60;;;;;;;7.41;83.72;99224.31;4486999;32;34321;-80
2023/04/21 04:27:32;;;;;;;0.60;0.60;;;;;;;7.79;79.28;99223.44;4487025;32;33957;-79
2023/04/21 04:30:00;;;;;;;3.22;1.95;;;;;;;8.02;81.40;99220.81;4486939;32;35057;-78
2023/04/21 04:32:28;;;;;;;0.70;0.70;;;;;;;9.09;75.32;99227.28;4472644;32;32874;-79
2023/04/21 04:34:57;;;;;;;0.65;0.65;;;;;;;10.31;67.27;99228.81;4472934;32;33821;-78
2023/04/21 04:37:26;;;;;;;0.40;0.40;;;;;;;11.28;66.17;99239.69;4486800;32;33891;-79
2023/04/21 04:39:54;;;;;;;1.30;1.20;;;;;;;11.88;63.49;99233.50;4486792;32;35059;-79
2023/04/21 04:42:24;;;;;;;0.82;0.82;;;;;;;12.61;60.45;99239.06;4486845;32;35228;-79
2023/04/21 04:44:53;;;;;;;0.60;0.60;;;;;;;13.13;57.01;99233.59;4486815;32;34468;-79
2023/04/21 04:47:21;;;;;;;0.70;0.70;;;;;;;14.04;56.99;99234.88;4486921;32;34046;-78
2023/04/21 04:49:49;;;;;;;2.72;2.53;;;;;;;13.80;56.86;99237.25;4486811;32;35071;-79
2023/04/21 04:52:17;;;;;;;0.85;0.85;;;;;;;14.06;51.82;99232.22;4473151;32;35008;-79
2023/04/21 04:54:45;;;;;;;3.92;1.00;;;;;;;13.97;53.57;99233.31;4486686;32;33375;-79
2023/04/21 04:57:13;;;;;;;0.80;0.62;;;;;;;13.99;52.36;99223.66;4486753;32;33893;-79
2023/04/21 04:59:41;;;;;;;1.80;1.70;;;;;;;14.10;52.60;99229.50;4486575;32;35094;-78
2023/04/21 05:02:09;;;;;;;0.98;0.98;;;;;;;14.40;52.56;99233.03;4486758;32;34300;-78
2023/04/21 05:04:38;;;;;;;3.28;0.82;;;;;;;14.57;52.47;99232.53;4486661;32;33579;-78
2023/04/21 05:07:07;;;;;;;0.30;0.30;;;;;;;15.04;51.08;99239.09;4486735;32;34420;-78
2023/04/21 05:09:35;;;;;;;0.30;0.30;;;;;;;14.40;53.47;99238.25;4472429;32;34671;-79
2023/04/21 05:12:03;;;;;;;15.55;1.75;;;;;;;15.11;49.58;99237.97;4486567;32;34582;-79
2023/04/21 05:14:32;;;;;;;0.50;0.50;;;;;;;15.02;51.03;99233.88;4486631;32;34362;-78
2023/04/21 05:17:00;;;;;;;0.70;0.70;;;;;;;14.74;51.07;99239.94;4486797;32;34814;-78
2023/04/21 05:19:28;;;;;;;1.27;1.17;;;;;;;14.94;47.17;99231.47;4486614;32;34570;-80
2023/04/21 05:22:00;;;;;;;1.45;1.25;;;;;;;15.50;48.60;99237.63;4486347;32;34503;-78
2023/04/21 05:24:28;;;;;;;0.55;0.55;;;;;;;15.65;46.24;99237.13;4472346;32;32751;-80
2023/04/21 05:26:56;;;;;;;2.00;1.85;;;;;;;16.15;46.50;99238.97;4486513;32;34104;-79
2023/04/21 05:29:24;;;;;;;0.95;0.80;;;;;;;16.04;45.67;99228.84;4486433;32;35922;-78
2023/04/21 05:31:52;;;;;;;0.62;0.62;;;;;;;16.81;43.76;99231.28;4472381;32;35029;-79
2023/04/21 05:34:20;;;;;;;0.70;0.70;;;;;;;16.98;44.34;99235.09;4486495;32;33431;-79
2023/04/21 05:36:49;;;;;;;0.50;0.50;;;;;;;15.93;46.35;99233.59;4486409;32;33931;-80
2023/04/21 05:39:17;;;;;;;0.77;0.77;;;;;;;14.87;47.51;99237.81;4486530;32;35246;-78
2023/04/21 05:41:45;;;;;;;0.40;0.40;;;;;;;16.59;42.66;99236.50;4486405;32;35047;-78
2023/04/21 05:44:16;;;;;;;1.12;0.95;;;;;;;15.52;45.20;99241.91;4486376;32;33476;-79
2023/04/21 05:46:45;;;;;;;0.55;0.55;;;;;;;14.79;48.81;99245.06;4486499;32;33948;-78
2023/04/21 05:49:13;;;;;;;0.40;0.40;;;;;;;15.33;48.34;99243.41;4472300;32;34901;-79
2023/04/21 05:51:41;;;;;;;0.50;0.50;;;;;;;15.41;45.61;99243.19;4486263;32;35300;-78
2023/04/21 05:54:09;;;;;;;0.50;0.50;;;;;;;16.17;44.58;99245.00;4486408;32;33394;-78
2023/04/21 05:56:37;;;;;;;0.60;0.60;;;;;;;15.40;46.45;99242.28;4459650;32;34769;-78
2023/04/21 05:59:06;;;;;;;0.68;0.68;;;;;;;15.00;45.36;99247.94;4472301;32;34994;-79
2023/04/21 06:01:34;;;;;;;0.88;0.88;;;;;;;16.58;41.62;99245.28;4486361;32;35162;-79
2023/04/21 06:04:03;;;;;;;0.95;0.73;;;;;;;16.47;43.89;99250.09;4486268;32;33410;-78
2023/04/21 06:06:31;;;;;;;0.95;0.90;;;;;;;16.48;46.08;99249.16;4486436;32;34674;-78
2023/04/21 06:09:00;;;;;;;0.50;0.50;;;;;;;17.41;41.57;99254.44;4486299;32;34911;-78
2023/04/21 06:11:28;;;;;;;0.77;0.77;;;;;;;18.31;36.29;99243.69;4472183;32;34424;-77
2023/04/21 06:13:58;;;;;;;0.73;0.73;;;;;;;18.40;37.77;99245.03;4486374;32;33594;-78
2023/04/21 06:16:26;;;;;;;1.33;0.70;;;;;;;18.54;35.18;99246.13;4486240;32;33084;-76
2023/04/21 06:18:57;;;;;;;1.48;1.15;;;;;;;18.29;37.35;99241.09;4472280;32;35129;-77
2023/04/21 06:21:25;;;;;;;0.30;0.30;;;;;;;18.44;37.82;99243.97;4486226;32;35215;-77
2023/04/21 06:23:53;;;;;;;0.47;0.47;;;;;;;18.89;34.80;99250.78;4486167;32;34211;-78
2023/04/21 06:26:22;;;;;;;0.93;0.93;;;;;;;19.25;35.15;99252.59;4486150;32;33893;-78
2023/04/21 06:28:50;;;;;;;0.60;0.55;;;;;;;19.14;34.58;99246.03;4486216;32;35155;-78
2023/04/21 06:31:18;;;;;;;1.00;0.73;;;;;;;18.98;35.54;99245.06;4486052;32;34532;-77
2023/04/21 06:33:47;;;;;;;2.37;2.17;;;;;;;19.59;32.93;99246.53;4485249;32;33470;-78
2023/04/21 06:36:15;;;;;;;1.83;1.30;;;;;;;18.92;33.85;99240.94;4471927;32;34756;-78
2023/04/21 06:38:44;;;;;;;0.32;0.32;;;;;;;19.59;34.38;99240.38;4485822;32;35183;-78
2023/04/21 06:41:13;;;;;;;1.25;1.05;;;;;;;19.12;33.89;99247.91;4485988;32;34445;-79
2023/04/21 06:43:41;;;;;;;0.45;0.45;;;;;;;19.20;33.65;99251.94;4486046;32;33568;-80
2023/04/21 06:46:09;;;;;;;0.37;0.35;;;;;;;19.86;34.31;99249.62;4485917;32;33940;-80
2023/04/21 06:48:37;;;;;;;0.32;0.32;;;;;;;19.22;34.44;99247.44;4485912;32;35972;-78
2023/04/21 06:51:06;;;;;;;0.43;0.43;;;;;;;19.14;35.33;99243.41;4485929;32;35179;-78
2023/04/21 06:53:34;;;;;;;0.50;0.50;;;;;;;19.49;34.31;99248.75;4485952;32;34349;-79
2023/04/21 06:56:02;;;;;;;3.00;1.10;;;;;;;18.72;34.69;99248.88;4485826;32;33960;-78
2023/04/21 06:58:30;;;;;;;0.60;0.60;;;;;;;18.98;36.35;99245.06;4471861;32;35028;-80
2023/04/21 07:00:58;;;;;;;1.35;1.00;;;;;;;19.73;34.51;99243.22;4479323;32;34448;-77
2023/04/21 07:03:27;;;;;;;1.33;1.23;;;;;;;19.32;36.66;99246.09;4456391;32;33329;-77
2023/04/21 07:05:55;;;;;;;5.18;1.00;;;;;;;20.13;34.05;99249.13;4456072;32;34646;-80
2023/04/21 07:08:24;;;;;;;0.43;0.43;;;;;;;19.72;33.56;99241.50;4455996;32;33547;-77
2023/04/21 07:10:52;;;;;;;2.37;0.95;;;;;;;19.61;33.03;99243.84;4471841;32;34630;-74
2023/04/21 07:13:20;;;;;;;0.45;0.45;;;;;;;20.47;31.75;99239.44;4455594;32;33342;-74
2023/04/21 07:15:48;;;;;;;0.50;0.50;;;;;;;19.93;32.18;99236.94;4455661;32;33814;-77
2023/04/21 07:18:17;;;;;;;0.37;0.37;;;;;;;20.01;32.55;99241.84;4453357;32;35025;-76
2023/04/21 07:20:45;;;;;;;1.37;1.27;;;;;;;20.49;31.98;99242.88;4455925;32;33475;-76
2023/04/21 07:23:14;;;;;;;0.70;0.70;;;;;;;20.86;30.57;99246.22;4457149;32;33329;-77
2023/04/21 07:25:43;;;;;;;0.30;0.30;;;;;;;20.80;31.33;99242.09;4484682;32;33946;-77
2023/04/21 07:28:13;;;;;;;0.73;0.73;;;;;;;20.73;31.54;99239.87;4485103;32;35959;-77
2023/04/21 07:30:42;;;;;;;0.93;0.82;;;;;;;21.13;30.35;99249.13;4471122;32;33191;-77
2023/04/21 07:33:10;;;;;;;0.30;0.30;;;;;;;21.58;29.48;99247.50;4485253;32;33017;-77
2023/04/21 07:35:39;;;;;;;0.20;0.20;;;;;;;22.03;29.32;99238.72;4482123;32;33785;-77
2023/04/21 07:38:07;;;;;;;2.67;1.02;;;;;;;20.67;30.78;99242.88;4469208;32;35041;-78
2023/04/21 07:40:35;;;;;;;1.20;1.10;;;;;;;20.23;34.02;99249.53;4469517;32;35147;-77
2023/04/21 07:43:03;;;;;;;0.62;0.62;;;;;;;21.22;29.65;99242.47;4469599;32;33276;-77
2023/04/21 07:45:31;;;;;;;1.25;0.85;;;;;;;20.79;31.21;99250.12;4469347;32;34748;-76
2023/04/21 07:48:00;;;;;;;1.37;1.27;;;;;;;20.53;35.08;99241.75;4470167;32;36040;-78
2023/04/21 07:50:28;;;;;;;0.57;0.57;;;;;;;21.46;30.70;99244.66;4470260;32;34391;-76
2023/04/21 07:52:58;;;;;;;0.82;0.82;;;;;;;21.23;34.54;99249.47;4469156;32;33523;-79
2023/04/21 07:55:28;;;;;;;0.40;0.40;;;;;;;21.25;32.55;99242.28;4457007;32;35659;-81
2023/04/21 07:57:58;;;;;;;2.80;1.48;;;;;;;20.45;33.92;99238.66;4471467;32;35050;-77
2023/04/21 08:00:27;;;;;;;0.65;0.50;;;;;;;21.02;31.33;99246.22;4471416;32;35263;-81
2023/04/21 08:02:59;;;;;;;7.37;1.73;;;;;;;21.71;30.06;99250.28;4471452;32;33283;-76
2023/04/21 08:05:30;;;;;;;0.20;0.20;;;;;;;21.91;30.06;99250.91;4471453;32;33192;-77
2023/04/21 08:08:06;;;;;;;0.40;0.40;;;;;;;20.44;33.49;99258.12;4458336;32;33810;-78
2023/04/21 08:10:35;;;;;;;1.55;0.82;;;;;;;20.97;34.95;99238.53;4471328;32;33551;-76
2023/04/21 08:13:05;;;;;;;0.20;0.20;;;;;;;21.11;34.74;99250.16;4479824;32;34344;-77
2023/04/21 08:15:33;;;;;;;0.70;0.70;;;;;;;22.27;29.19;99247.03;4473188;32;33999;-77
2023/04/21 08:18:02;;;;;;;3.17;1.37;;;;;;;21.91;29.22;99250.91;4486681;32;35970;-77
2023/04/21 08:20:31;;;;;;;0.30;0.30;;;;;;;20.89;32.06;99248.66;4486944;32;34458;-76
2023/04/21 08:22:59;;;;;;;2.40;0.60;;;;;;;21.01;33.77;99250.66;4486957;32;33523;-77
2023/04/21 08:25:32;;;;;;;0.30;0.30;;;;;;;21.37;32.38;99246.91;4473289;32;34019;-77
2023/04/21 08:28:02;;;;;;;0.32;0.32;;;;;;;21.74;30.63;99249.22;4486860;32;35947;-77
2023/04/21 08:30:33;;;;;;;1.25;1.08;;;;;;;22.36;29.02;99241.19;4486898;32;34431;-78
2023/04/21 08:33:01;;;;;;;1.67;0.85;;;;;;;21.17;34.31;99255.09;4486900;32;34091;-78
2023/04/21 08:35:29;;;;;;;0.50;0.45;;;;;;;22.33;28.63;99241.34;4472731;32;33355;-76
2023/04/21 08:37:57;;;;;;;0.68;0.68;;;;;;;21.37;31.16;99246.00;4472406;32;34610;-77
2023/04/21 08:40:32;;;;;;;1.73;1.48;;;;;;;22.59;30.13;99241.53;4486742;32;34473;-76
2023/04/21 08:43:00;;;;;;;1.67;0.93;;;;;;;23.57;27.37;99239.75;4472783;32;33533;-76
2023/04/21 08:45:30;;;;;;;1.30;1.20;;;;;;;23.18;28.80;99244.91;4486665;32;34763;-78
2023/04/21 08:48:00;;;;;;;0.30;0.30;;;;;;;21.91;30.40;99243.78;4493238;31;35011;-77
2023/04/21 08:50:30;;;;;;;0.45;0.45;;;;;;;22.31;32.47;99232.66;4488491;31;33711;-76
2023/04/21 08:52:58;;;;;;;0.40;0.37;;;;;;;22.64;27.68;99240.34;4502519;31;33418;-76
2023/04/21 08:55:29;;;;;;;0.25;0.25;;;;;;;22.65;28.49;99233.22;4488341;31;34027;-76
2023/04/21 08:57:57;;;;;;;0.50;0.50;;;;;;;22.69;30.88;99235.56;4474536;31;34362;-73
2023/04/21 09:00:25;;;;;;;1.85;0.85;;;;;;;23.00;28.61;99243.41;4488249;31;34257;-76
2023/04/21 09:02:58;;;;;;;0.73;0.73;;;;;;;22.86;26.13;99242.47;4502010;31;33471;-77
2023/04/21 09:05:31;;;;;;;0.60;0.60;;;;;;;23.18;27.60;99228.97;4488875;31;34104;-77
2023/04/21 09:08:18;;;;;;;0.88;0.88;;;;;;;23.79;25.78;99233.84;4502458;31;35781;-77
2023/04/21 09:10:49;;;;;;;0.50;0.50;;;;;;;23.59;27.50;99227.22;4488968;31;35232;-78
2023/04/21 09:13:22;;;;;;;5.78;1.02;;;;;;;22.86;26.34;99231.84;4460460;32;32968;-75
2023/04/21 09:15:51;;;;;;;0.52;0.52;;;;;;;23.07;27.53;99220.84;4472770;32;34685;-75
2023/04/21 09:18:21;;;;;;;0.55;0.55;;;;;;;22.44;30.75;99225.63;4472235;32;35926;-77
2023/04/21 09:21:04;;;;;;;0.57;0.57;;;;;;;23.36;26.35;99226.91;4472419;32;34449;-75
2023/04/21 09:23:50;;;;;;;1.02;0.70;;;;;;;23.49;27.42;99229.66;4486468;32;34329;-74
2023/04/21 09:26:21;;;;;;;1.35;1.25;;;;;;;23.27;25.54;99211.59;4486353;32;33817;-76
2023/04/21 09:28:51;;;;;;;1.92;1.05;;;;;;;23.70;25.96;99216.72;4465016;32;35140;-78
2023/04/21 09:31:23;;;;;;;0.70;0.52;;;;;;;23.04;30.18;99210.41;4470564;32;35069;-77
2023/04/21 09:33:55;;;;;;;1.05;0.95;;;;;;;22.40;26.28;99221.47;4456936;32;33625;-76
2023/04/21 09:36:28;;;;;;;0.70;0.70;;;;;;;23.72;25.79;99211.28;4457098;32;34695;-77
2023/04/21 09:39:01;;;;;;;0.30;0.30;;;;;;;23.08;26.21;99217.22;4457973;32;35201;-77
2023/04/21 09:41:49;;;;;;;0.95;0.93;;;;;;;23.46;27.38;99206.75;4458757;32;35048;-75
2023/04/21 09:44:18;;;;;;;0.40;0.40;;;;;;;24.23;25.47;99206.94;4474007;32;33528;-76
2023/04/21 09:46:49;;;;;;;16.40;1.55;;;;;;;22.74;29.15;99187.50;4470000;32;34699;-78
2023/04/21 09:49:18;;;;;;;1.90;1.77;;;;;;;23.40;25.85;99196.56;4461758;32;34973;-77
2023/04/21 09:51:46;;;;;;;0.80;0.80;;;;;;;24.11;25.83;99201.63;4456205;32;34320;-76
2023/04/21 09:54:19;;;;;;;0.40;0.40;;;;;;;23.89;24.18;99196.91;4472384;32;33307;-76
2023/04/21 09:56:53;;;;;;;2.05;1.75;;;;;;;23.29;28.24;99193.75;4471910;32;33856;-77
2023/04/21 09:59:26;;;;;;;0.40;0.40;;;;;;;22.36;31.51;99188.13;4472061;32;35163;-74
2023/04/21 10:01:57;;;;;;;0.22;0.22;;;;;;;23.50;26.43;99196.78;4472337;32;35048;-76
2023/04/21 10:04:27;;;;;;;0.85;0.85;;;;;;;24.15;26.43;99203.09;4470550;32;33412;-75
2023/04/21 10:06:58;;;;;;;0.62;0.62;;;;;;;23.82;26.85;99189.34;4456658;32;34781;-75
2023/04/21 10:09:55;;;;;;;0.68;0.68;;;;;;;24.38;24.35;99186.34;4469384;32;35767;-75
2023/04/21 10:12:24;;;;;;;1.17;0.90;;;;;;;24.75;24.35;99182.94;4465476;32;34305;-75
2023/04/21 10:14:56;;;;;;;0.88;0.60;;;;;;;22.96;25.25;99183.47;4470590;32;33692;-75
2023/04/21 10:17:25;;;;;;;0.35;0.35;;;;;;;23.48;26.10;99180.94;4470493;32;33818;-75
2023/04/21 10:19:56;;;;;;;2.55;1.70;;;;;;;23.67;26.40;99182.38;4456361;32;35695;-74
2023/04/21 10:22:32;;;;;;;1.02;0.95;;;;;;;23.11;27.96;99194.94;4456477;32;33722;-74
2023/04/21 10:25:02;;;;;;;0.40;0.40;;;;;;;23.96;25.56;99190.19;4456406;32;33410;-76
2023/04/21 10:27:40;;;;;;;0.93;0.93;;;;;;;23.00;29.53;99187.66;4455854;32;33190;-76
2023/04/21 10:30:18;;;;;;;0.50;0.50;;;;;;;22.44;29.66;99177.87;4470531;32;34701;-75
2023/04/21 10:32:46;;;;;;;0.70;0.70;;;;;;;23.64;30.37;99178.09;4485319;32;34565;-75
2023/04/21 10:35:21;;;;;;;1.45;1.35;;;;;;;24.62;25.53;99177.66;4485458;32;33384;-75
2023/04/21 10:37:50;;;;;;;0.32;0.32;;;;;;;23.44;28.73;99175.94;4471586;32;34758;-75
2023/04/21 10:40:35;;;;;;;1.05;0.93;;;;;;;24.82;24.79;99168.22;4458679;32;35930;-76
2023/04/21 10:43:45;;;;;;;0.70;0.70;;;;;;;25.17;25.21;99162.94;4485122;32;34425;-76
2023/04/21 10:46:36;;;;;;;0.73;0.70;;;;;;;23.20;28.34;99165.97;4472029;32;33379;-76
2023/04/21 10:49:07;;;;;;;0.70;0.70;;;;;;;23.59;28.91;99156.28;4485850;32;34007;-76
2023/04/21 10:52:04;;;;;;;1.20;0.80;;;;;;;25.68;24.76;99158.34;4480180;32;35041;-76
2023/04/21 10:54:45;;;;;;;6.72;1.17;;;;;;;25.42;24.47;99153.16;4477166;32;34468;-77
2023/04/21 10:57:18;;;;;;;1.70;1.48;;;;;;;25.85;23.57;99144.53;4475500;32;33330;-76
2023/04/21 10:59:48;;;;;;;0.80;0.75;;;;;;;24.96;30.06;99151.22;4461000;32;34728;-77
2023/04/21 11:02:17;;;;;;;2.75;1.25;;;;;;;24.42;26.29;99147.94;4468571;32;34964;-77
2023/04/21 11:04:50;;;;;;;1.65;1.12;;;;;;;24.49;26.00;99142.16;4454685;32;34466;-76
2023/04/21 11:07:23;;;;;;;0.90;0.73;;;;;;;24.25;24.83;99142.97;4460166;32;33317;-76
2023/04/21 11:10:10;;;;;;;0.47;0.47;;;;;;;24.58;25.22;99146.84;4472524;32;33970;-76
2023/04/21 11:12:40;;;;;;;0.60;0.60;;;;;;;24.78;28.43;99138.28;4468616;32;35154;-76
2023/04/21 11:15:10;;;;;;;1.30;1.08;;;;;;;25.54;26.45;99146.91;4458409;32;34479;-75
2023/04/21 11:17:42;;;;;;;0.85;0.85;;;;;;;24.90;25.50;99136.53;4460829;32;34203;-80
2023/04/21 11:20:10;;;;;;;0.35;0.35;;;;;;;24.32;27.98;99144.22;4460080;32;33967;-76
2023/04/21 11:22:39;;;;;;;1.52;1.37;;;;;;;24.06;24.86;99138.06;4475742;32;35110;-76
2023/04/21 11:25:16;;;;;;;0.40;0.40;;;;;;;24.05;26.63;99136.34;4474324;32;34343;-76
2023/04/21 11:27:53;;;;;;;3.50;1.40;;;;;;;25.84;23.92;99137.50;4475699;32;34247;-76
2023/04/21 11:30:31;;;;;;;0.35;0.35;;;;;;;26.78;26.50;99137.31;4474190;32;34596;-76
2023/04/21 11:33:00;;;;;;;1.45;1.30;;;;;;;26.43;24.85;99132.97;4461980;32;35016;-76
2023/04/21 11:35:28;;;;;;;0.40;0.32;;;;;;;26.75;22.16;99132.22;4477036;32;34392;-76
2023/04/21 11:37:56;;;;;;;0.40;0.40;;;;;;;26.10;22.67;99126.63;4468266;32;182570;-76
2023/04/21 11:40:25;;;;;;;25.42;1.67;;;;;;;25.65;22.66;99122.06;4473931;32;34012;-76
2023/04/21 11:42:53;;;;;;;2.75;1.37;;;;;;;24.69;24.49;99122.13;4459448;32;36118;-76
2023/04/21 11:45:21;;;;;;;0.43;0.43;;;;;;;24.48;28.57;99129.81;4476646;32;35260;-76
2023/04/21 11:47:50;;;;;;;0.50;0.50;;;;;;;24.05;30.12;99123.06;4473871;32;33344;-76
2023/04/21 11:50:31;;;;;;;0.65;0.65;;;;;;;24.49;26.33;99115.56;4476042;32;34900;-75